sensor_id;sensor_type;location;lat;lon;timestamp;temperature;humidity
53053;DHT22;38934;52.690;6.184;2023-04-21T00:01:13;9.10;99.90
53053;DHT22;38934;52.690;6.184;2023-04-21T00:03:39;9.10;99.90
53053;DHT22;38934;52.690;6.184;2023-04-21T00:06:06;9.10;99.90
53053;DHT22;38934;52.690;6.184;2023-04-21T00:08:32;9.10;99.90
53053;DHT22;38934;52.690;6.184;2023-04-21T00:10:59;9.00;99.90
53053;DHT22;38934;52.690;6.184;2023-04-21T00:13:26;9.00;99.90
53053;DHT22;38934;52.690;6.184;2023-04-21T00:15:52;9.00;99.90
53053;DHT22;38934;52.690;6.184;2023-04-21T00:18:17;9.00;99.90
53053;DHT22;38934;52.690;6.184;2023-04-21T00:20:43;9.00;99.90
53053;DHT22;38934;52.690;6.184;2023-04-21T00:23:09;8.90;99.90
53053;DHT22;38934;52.690;6.184;2023-04-21T00:25:35;9.40;99.90
53053;DHT22;38934;52.690;6.184;2023-04-21T00:28:02;8.90;99.90
53053;DHT22;38934;52.690;6.184;2023-04-21T00:30:28;8.90;99.90
53053;DHT22;38934;52.690;6.184;2023-04-21T00:32:53;8.90;99.90
53053;DHT22;38934;52.690;6.184;2023-04-21T00:35:20;8.90;99.90
53053;DHT22;38934;52.690;6.184;2023-04-21T00:37:46;9.10;99.90
53053;DHT22;38934;52.690;6.184;2023-04-21T00:40:11;8.90;99.90
53053;DHT22;38934;52.690;6.184;2023-04-21T00:42:38;8.80;99.90
53053;DHT22;38934;52.690;6.184;2023-04-21T00:45:04;9.70;99.90
53053;DHT22;38934;52.690;6.184;2023-04-21T00:47:31;8.70;99.90
53053;DHT22;38934;52.690;6.184;2023-04-21T00:49:57;8.70;99.90
53053;DHT22;38934;52.690;6.184;2023-04-21T00:52:25;8.70;99.90
53053;DHT22;38934;52.690;6.184;2023-04-21T00:54:52;8.90;99.90
53053;DHT22;38934;52.690;6.184;2023-04-21T00:57:18;8.70;99.90
53053;DHT22;38934;52.690;6.184;2023-04-21T00:59:44;8.70;99.90
53053;DHT22;38934;52.690;6.184;2023-04-21T01:02:10;8.70;99.90
53053;DHT22;38934;52.690;6.184;2023-04-21T01:04:39;8.60;99.90
53053;DHT22;38934;52.690;6.184;2023-04-21T01:07:05;9.30;99.90
53053;DHT22;38934;52.690;6.184;2023-04-21T01:09:32;8.60;99.90
53053;DHT22;38934;52.690;6.184;2023-04-21T01:12:06;8.60;99.90
53053;DHT22;38934;52.690;6.184;2023-04-21T01:14:31;8.60;99.90
53053;DHT22;38934;52.690;6.184;2023-04-21T01:16:58;8.60;99.90
53053;DHT22;38934;52.690;6.184;2023-04-21T01:19:26;8.60;99.90
53053;DHT22;38934;52.690;6.184;2023-04-21T01:21:53;8.60;99.90
53053;DHT22;38934;52.690;6.184;2023-04-21T01:24:22;8.50;99.90
53053;DHT22;38934;52.690;6.184;2023-04-21T01:26:49;8.50;99.90
53053;DHT22;38934;52.690;6.184;2023-04-21T01:29:16;8.50;99.90
53053;DHT22;38934;52.690;6.184;2023-04-21T01:31:42;8.50;99.90
53053;DHT22;38934;52.690;6.184;2023-04-21T01:34:08;8.50;99.90
53053;DHT22;38934;52.690;6.184;2023-04-21T01:36:35;8.50;99.90
53053;DHT22;38934;52.690;6.184;2023-04-21T01:39:01;9.40;99.90
53053;DHT22;38934;52.690;6.184;2023-04-21T01:41:27;8.60;99.90
53053;DHT22;38934;52.690;6.184;2023-04-21T01:43:53;8.60;99.90
53053;DHT22;38934;52.690;6.184;2023-04-21T01:46:20;8.60;99.90
53053;DHT22;38934;52.690;6.184;2023-04-21T01:48:46;8.60;99.90
53053;DHT22;38934;52.690;6.184;2023-04-21T01:51:12;8.60;99.90
53053;DHT22;38934;52.690;6.184;2023-04-21T01:53:38;8.70;99.90
53053;DHT22;38934;52.690;6.184;2023-04-21T01:56:05;8.70;99.90
53053;DHT22;38934;52.690;6.184;2023-04-21T01:58:30;8.70;99.90
53053;DHT22;38934;52.690;6.184;2023-04-21T02:00:56;8.70;99.90
53053;DHT22;38934;52.690;6.184;2023-04-21T02:03:24;8.70;99.90
53053;DHT22;38934;52.690;6.184;2023-04-21T02:05:50;8.70;99.90
53053;DHT22;38934;52.690;6.184;2023-04-21T02:08:16;8.80;99.90
53053;DHT22;38934;52.690;6.184;2023-04-21T02:10:42;8.80;99.90
53053;DHT22;38934;52.690;6.184;2023-04-21T02:13:07;9.20;99.90
53053;DHT22;38934;52.690;6.184;2023-04-21T02:15:33;8.80;99.90
53053;DHT22;38934;52.690;6.184;2023-04-21T02:17:59;9.80;99.90
53053;DHT22;38934;52.690;6.184;2023-04-21T02:20:25;8.90;99.90
53053;DHT22;38934;52.690;6.184;2023-04-21T02:22:50;8.90;99.90
53053;DHT22;38934;52.690;6.184;2023-04-21T02:25:16;8.90;99.90
53053;DHT22;38934;52.690;6.184;2023-04-21T02:27:42;9.80;99.90
53053;DHT22;38934;52.690;6.184;2023-04-21T02:30:08;9.00;99.90
53053;DHT22;38934;52.690;6.184;2023-04-21T02:32:34;9.00;99.90
53053;DHT22;38934;52.690;6.184;2023-04-21T02:34:59;8.90;99.90
53053;DHT22;38934;52.690;6.184;2023-04-21T02:37:26;8.90;99.90
53053;DHT22;38934;52.690;6.184;2023-04-21T02:39:52;8.90;99.90
53053;DHT22;38934;52.690;6.184;2023-04-21T02:42:18;8.90;99.90
53053;DHT22;38934;52.690;6.184;2023-04-21T02:44:43;9.00;99.90
53053;DHT22;38934;52.690;6.184;2023-04-21T02:47:10;9.00;99.90
53053;DHT22;38934;52.690;6.184;2023-04-21T02:49:40;9.00;99.90
53053;DHT22;38934;52.690;6.184;2023-04-21T02:52:06;9.10;99.90
53053;DHT22;38934;52.690;6.184;2023-04-21T02:54:32;9.20;99.90
53053;DHT22;38934;52.690;6.184;2023-04-21T02:56:58;9.10;99.90
53053;DHT22;38934;52.690;6.184;2023-04-21T02:59:23;9.10;99.90
53053;DHT22;38934;52.690;6.184;2023-04-21T03:01:49;9.10;99.90
53053;DHT22;38934;52.690;6.184;2023-04-21T03:04:15;9.10;99.90
53053;DHT22;38934;52.690;6.184;2023-04-21T03:06:41;9.10;99.90
53053;DHT22;38934;52.690;6.184;2023-04-21T03:09:07;9.10;99.90
53053;DHT22;38934;52.690;6.184;2023-04-21T03:11:33;9.10;99.90
53053;DHT22;38934;52.690;6.184;2023-04-21T03:13:59;9.10;99.90
53053;DHT22;38934;52.690;6.184;2023-04-21T03:16:24;9.10;99.90
53053;DHT22;38934;52.690;6.184;2023-04-21T03:18:50;9.80;99.90
53053;DHT22;38934;52.690;6.184;2023-04-21T03:21:16;9.80;99.90
53053;DHT22;38934;52.690;6.184;2023-04-21T03:23:43;9.10;99.90
53053;DHT22;38934;52.690;6.184;2023-04-21T03:26:09;9.00;99.90
53053;DHT22;38934;52.690;6.184;2023-04-21T03:28:35;9.00;99.90
53053;DHT22;38934;52.690;6.184;2023-04-21T03:31:01;9.00;99.90
53053;DHT22;38934;52.690;6.184;2023-04-21T03:33:26;9.00;99.90
53053;DHT22;38934;52.690;6.184;2023-04-21T03:35:52;9.00;99.90
53053;DHT22;38934;52.690;6.184;2023-04-21T03:38:17;9.00;99.90
53053;DHT22;38934;52.690;6.184;2023-04-21T03:40:43;9.50;99.90
53053;DHT22;38934;52.690;6.184;2023-04-21T03:43:10;9.00;99.90
53053;DHT22;38934;52.690;6.184;2023-04-21T03:45:36;9.00;99.90
53053;DHT22;38934;52.690;6.184;2023-04-21T03:48:01;9.10;99.90
53053;DHT22;38934;52.690;6.184;2023-04-21T03:50:28;9.10;99.90
53053;DHT22;38934;52.690;6.184;2023-04-21T03:52:53;9.40;99.90
53053;DHT22;38934;52.690;6.184;2023-04-21T03:55:19;9.10;99.90
53053;DHT22;38934;52.690;6.184;2023-04-21T03:57:45;9.10;99.90
53053;DHT22;38934;52.690;6.184;2023-04-21T04:00:11;9.10;99.90
53053;DHT22;38934;52.690;6.184;2023-04-21T04:02:38;9.20;99.90
53053;DHT22;38934;52.690;6.184;2023-04-21T04:05:05;10.20;99.90
53053;DHT22;38934;52.690;6.184;2023-04-21T04:07:31;9.20;99.90
53053;DHT22;38934;52.690;6.184;2023-04-21T04:09:57;9.10;99.90
53053;DHT22;38934;52.690;6.184;2023-04-21T04:12:23;9.10;99.90
53053;DHT22;38934;52.690;6.184;2023-04-21T04:14:49;9.20;99.90
53053;DHT22;38934;52.690;6.184;2023-04-21T04:17:14;9.10;99.90
53053;DHT22;38934;52.690;6.184;2023-04-21T04:19:40;9.10;99.90
53053;DHT22;38934;52.690;6.184;2023-04-21T04:22:07;9.10;99.90
53053;DHT22;38934;52.690;6.184;2023-04-21T04:24:34;9.10;99.90
53053;DHT22;38934;52.690;6.184;2023-04-21T04:27:00;9.10;99.90
53053;DHT22;38934;52.690;6.184;2023-04-21T04:29:28;9.10;99.90
53053;DHT22;38934;52.690;6.184;2023-04-21T04:31:54;9.10;99.90
53053;DHT22;38934;52.690;6.184;2023-04-21T04:34:19;9.10;99.90
53053;DHT22;38934;52.690;6.184;2023-04-21T04:36:45;9.10;99.90
53053;DHT22;38934;52.690;6.184;2023-04-21T04:39:12;9.10;99.90
53053;DHT22;38934;52.690;6.184;2023-04-21T04:41:38;9.10;99.90
53053;DHT22;38934;52.690;6.184;2023-04-21T04:44:04;9.10;99.90
53053;DHT22;38934;52.690;6.184;2023-04-21T04:46:30;9.50;99.90
53053;DHT22;38934;52.690;6.184;2023-04-21T04:48:56;9.10;99.90
53053;DHT22;38934;52.690;6.184;2023-04-21T04:51:22;9.20;99.90
53053;DHT22;38934;52.690;6.184;2023-04-21T04:53:55;9.20;99.90
53053;DHT22;38934;52.690;6.184;2023-04-21T04:56:20;9.20;99.90
53053;DHT22;38934;52.690;6.184;2023-04-21T04:58:53;9.30;99.90
53053;DHT22;38934;52.690;6.184;2023-04-21T05:01:19;9.60;99.90
53053;DHT22;38934;52.690;6.184;2023-04-21T05:03:45;9.40;99.90
53053;DHT22;38934;52.690;6.184;2023-04-21T05:06:11;10.40;99.90
53053;DHT22;38934;52.690;6.184;2023-04-21T05:08:38;9.40;99.90
53053;DHT22;38934;52.690;6.184;2023-04-21T05:11:11;9.50;99.90
53053;DHT22;38934;52.690;6.184;2023-04-21T05:13:43;9.50;99.90
53053;DHT22;38934;52.690;6.184;2023-04-21T05:16:09;9.60;99.90
53053;DHT22;38934;52.690;6.184;2023-04-21T05:18:35;9.60;99.90
53053;DHT22;38934;52.690;6.184;2023-04-21T05:21:10;9.60;99.90
53053;DHT22;38934;52.690;6.184;2023-04-21T05:23:49;9.70;99.90
53053;DHT22;38934;52.690;6.184;2023-04-21T05:26:24;9.70;99.90
53053;DHT22;38934;52.690;6.184;2023-04-21T05:29:03;9.80;99.90
53053;DHT22;38934;52.690;6.184;2023-04-21T05:31:29;10.50;99.90
53053;DHT22;38934;52.690;6.184;2023-04-21T05:33:55;9.80;99.90
53053;DHT22;38934;52.690;6.184;2023-04-21T05:36:20;9.80;99.90
53053;DHT22;38934;52.690;6.184;2023-04-21T05:38:46;9.80;99.90
53053;DHT22;38934;52.690;6.184;2023-04-21T05:41:13;9.80;99.90
53053;DHT22;38934;52.690;6.184;2023-04-21T05:43:39;9.80;99.90
53053;DHT22;38934;52.690;6.184;2023-04-21T05:46:08;9.90;99.90
53053;DHT22;38934;52.690;6.184;2023-04-21T05:48:34;9.90;99.90
53053;DHT22;38934;52.690;6.184;2023-04-21T05:51:11;9.90;99.90
53053;DHT22;38934;52.690;6.184;2023-04-21T05:53:39;9.90;99.90
53053;DHT22;38934;52.690;6.184;2023-04-21T05:56:07;9.90;99.90
53053;DHT22;38934;52.690;6.184;2023-04-21T05:58:34;10.00;99.90
53053;DHT22;38934;52.690;6.184;2023-04-21T06:01:01;10.00;99.90
53053;DHT22;38934;52.690;6.184;2023-04-21T06:03:30;10.00;99.90
53053;DHT22;38934;52.690;6.184;2023-04-21T06:05:56;10.10;99.90
53053;DHT22;38934;52.690;6.184;2023-04-21T06:08:23;10.20;99.90
53053;DHT22;38934;52.690;6.184;2023-04-21T06:10:51;10.20;99.90
53053;DHT22;38934;52.690;6.184;2023-04-21T06:13:17;10.30;99.90
53053;DHT22;38934;52.690;6.184;2023-04-21T06:15:43;10.40;99.90
53053;DHT22;38934;52.690;6.184;2023-04-21T06:18:09;11.00;99.90
53053;DHT22;38934;52.690;6.184;2023-04-21T06:20:34;10.40;99.90
53053;DHT22;38934;52.690;6.184;2023-04-21T06:23:01;10.40;99.90
53053;DHT22;38934;52.690;6.184;2023-04-21T06:25:29;10.40;99.90
53053;DHT22;38934;52.690;6.184;2023-04-21T06:27:54;10.40;99.90
53053;DHT22;38934;52.690;6.184;2023-04-21T06:30:20;10.40;99.90
53053;DHT22;38934;52.690;6.184;2023-04-21T06:32:48;10.40;99.90
53053;DHT22;38934;52.690;6.184;2023-04-21T06:35:16;10.50;99.90
53053;DHT22;38934;52.690;6.184;2023-04-21T06:37:46;10.50;99.90
53053;DHT22;38934;52.690;6.184;2023-04-21T06:40:12;10.50;99.90
53053;DHT22;38934;52.690;6.184;2023-04-21T06:42:41;11.10;99.90
53053;DHT22;38934;52.690;6.184;2023-04-21T06:45:07;10.60;99.90
53053;DHT22;38934;52.690;6.184;2023-04-21T06:47:32;10.60;99.90
53053;DHT22;38934;52.690;6.184;2023-04-21T06:49:58;10.60;99.90
53053;DHT22;38934;52.690;6.184;2023-04-21T06:52:23;10.60;99.90
53053;DHT22;38934;52.690;6.184;2023-04-21T06:54:49;10.60;99.90
53053;DHT22;38934;52.690;6.184;2023-04-21T06:57:15;10.70;99.90
53053;DHT22;38934;52.690;6.184;2023-04-21T06:59:41;10.70;99.90
53053;DHT22;38934;52.690;6.184;2023-04-21T07:02:07;10.80;99.90
53053;DHT22;38934;52.690;6.184;2023-04-21T07:04:34;10.80;99.90
53053;DHT22;38934;52.690;6.184;2023-04-21T07:07:02;10.90;99.90
53053;DHT22;38934;52.690;6.184;2023-04-21T07:09:27;10.90;99.90
53053;DHT22;38934;52.690;6.184;2023-04-21T07:11:54;11.00;99.90
53053;DHT22;38934;52.690;6.184;2023-04-21T07:14:20;11.10;99.90
53053;DHT22;38934;52.690;6.184;2023-04-21T07:16:52;11.10;99.90
53053;DHT22;38934;52.690;6.184;2023-04-21T07:19:19;11.30;99.90
53053;DHT22;38934;52.690;6.184;2023-04-21T07:21:44;11.30;99.90
53053;DHT22;38934;52.690;6.184;2023-04-21T07:24:13;11.40;99.90
53053;DHT22;38934;52.690;6.184;2023-04-21T07:26:39;11.60;99.90
53053;DHT22;38934;52.690;6.184;2023-04-21T07:29:05;11.70;99.90
53053;DHT22;38934;52.690;6.184;2023-04-21T07:31:30;11.80;99.90
53053;DHT22;38934;52.690;6.184;2023-04-21T07:33:57;11.80;99.90
53053;DHT22;38934;52.690;6.184;2023-04-21T07:36:26;11.90;99.90
53053;DHT22;38934;52.690;6.184;2023-04-21T07:38:53;11.90;99.90
53053;DHT22;38934;52.690;6.184;2023-04-21T07:41:18;12.00;99.90
53053;DHT22;38934;52.690;6.184;2023-04-21T07:43:45;12.10;99.90
53053;DHT22;38934;52.690;6.184;2023-04-21T07:46:11;12.10;99.90
53053;DHT22;38934;52.690;6.184;2023-04-21T07:48:38;12.30;99.90
53053;DHT22;38934;52.690;6.184;2023-04-21T07:51:05;12.30;99.90
53053;DHT22;38934;52.690;6.184;2023-04-21T07:53:30;12.30;99.90
53053;DHT22;38934;52.690;6.184;2023-04-21T07:55:56;12.30;99.90
53053;DHT22;38934;52.690;6.184;2023-04-21T07:58:23;12.80;99.90
53053;DHT22;38934;52.690;6.184;2023-04-21T08:00:49;12.30;99.90
53053;DHT22;38934;52.690;6.184;2023-04-21T08:03:15;12.60;99.90
53053;DHT22;38934;52.690;6.184;2023-04-21T08:05:41;12.70;99.90
53053;DHT22;38934;52.690;6.184;2023-04-21T08:08:07;12.30;99.90
53053;DHT22;38934;52.690;6.184;2023-04-21T08:10:33;12.30;99.90
53053;DHT22;38934;52.690;6.184;2023-04-21T08:12:58;12.30;99.90
53053;DHT22;38934;52.690;6.184;2023-04-21T08:15:25;13.00;99.90
53053;DHT22;38934;52.690;6.184;2023-04-21T08:17:51;12.40;99.90
53053;DHT22;38934;52.690;6.184;2023-04-21T08:20:16;12.90;99.90
53053;DHT22;38934;52.690;6.184;2023-04-21T08:22:42;12.50;99.90
53053;DHT22;38934;52.690;6.184;2023-04-21T08:25:08;12.80;99.90
53053;DHT22;38934;52.690;6.184;2023-04-21T08:27:37;12.50;99.90
53053;DHT22;38934;52.690;6.184;2023-04-21T08:30:03;13.10;99.90
53053;DHT22;38934;52.690;6.184;2023-04-21T08:32:29;12.70;99.90
53053;DHT22;38934;52.690;6.184;2023-04-21T08:34:55;13.20;99.90
53053;DHT22;38934;52.690;6.184;2023-04-21T08:37:21;13.00;99.90
53053;DHT22;38934;52.690;6.184;2023-04-21T08:39:48;13.10;99.90
53053;DHT22;38934;52.690;6.184;2023-04-21T08:42:18;13.10;99.90
53053;DHT22;38934;52.690;6.184;2023-04-21T08:44:45;13.30;99.90
53053;DHT22;38934;52.690;6.184;2023-04-21T08:47:13;13.40;99.90
53053;DHT22;38934;52.690;6.184;2023-04-21T08:49:40;13.50;99.90
53053;DHT22;38934;52.690;6.184;2023-04-21T08:52:07;13.60;99.90
53053;DHT22;38934;52.690;6.184;2023-04-21T08:54:33;13.70;99.90
53053;DHT22;38934;52.690;6.184;2023-04-21T08:57:01;13.80;99.90
53053;DHT22;38934;52.690;6.184;2023-04-21T08:59:28;13.90;99.90
53053;DHT22;38934;52.690;6.184;2023-04-21T09:02:10;13.90;99.90
53053;DHT22;38934;52.690;6.184;2023-04-21T09:04:44;14.10;99.90
53053;DHT22;38934;52.690;6.184;2023-04-21T09:07:10;14.10;99.90
53053;DHT22;38934;52.690;6.184;2023-04-21T09:09:52;14.20;99.90
53053;DHT22;38934;52.690;6.184;2023-04-21T09:12:18;14.30;99.90
53053;DHT22;38934;52.690;6.184;2023-04-21T09:14:43;14.50;99.90
53053;DHT22;38934;52.690;6.184;2023-04-21T09:17:09;14.70;99.90
53053;DHT22;38934;52.690;6.184;2023-04-21T09:19:36;14.90;99.90
53053;DHT22;38934;52.690;6.184;2023-04-21T09:22:03;14.90;99.90
53053;DHT22;38934;52.690;6.184;2023-04-21T09:24:29;15.00;99.90
53053;DHT22;38934;52.690;6.184;2023-04-21T09:26:55;14.80;99.90
53053;DHT22;38934;52.690;6.184;2023-04-21T09:29:24;14.90;99.90
53053;DHT22;38934;52.690;6.184;2023-04-21T09:31:51;15.00;99.90
53053;DHT22;38934;52.690;6.184;2023-04-21T09:34:24;14.70;99.90
53053;DHT22;38934;52.690;6.184;2023-04-21T09:37:02;14.90;99.90
53053;DHT22;38934;52.690;6.184;2023-04-21T09:39:29;15.00;99.90
53053;DHT22;38934;52.690;6.184;2023-04-21T09:41:56;15.00;99.90
53053;DHT22;38934;52.690;6.184;2023-04-21T09:44:22;14.90;99.90
53053;DHT22;38934;52.690;6.184;2023-04-21T09:46:49;15.00;99.90
53053;DHT22;38934;52.690;6.184;2023-04-21T09:49:22;15.10;99.90
53053;DHT22;38934;52.690;6.184;2023-04-21T09:51:49;15.00;99.90
53053;DHT22;38934;52.690;6.184;2023-04-21T09:54:16;15.00;99.90
53053;DHT22;38934;52.690;6.184;2023-04-21T09:56:48;15.10;99.90
53053;DHT22;38934;52.690;6.184;2023-04-21T09:59:18;15.30;99.90
53053;DHT22;38934;52.690;6.184;2023-04-21T10:01:48;15.40;99.90
53053;DHT22;38934;52.690;6.184;2023-04-21T10:04:16;15.50;99.90
53053;DHT22;38934;52.690;6.184;2023-04-21T10:06:43;15.40;99.90
53053;DHT22;38934;52.690;6.184;2023-04-21T10:09:12;15.50;99.90
53053;DHT22;38934;52.690;6.184;2023-04-21T10:11:38;15.60;99.90
53053;DHT22;38934;52.690;6.184;2023-04-21T10:14:05;15.50;99.90
53053;DHT22;38934;52.690;6.184;2023-04-21T10:16:35;15.50;99.90
53053;DHT22;38934;52.690;6.184;2023-04-21T10:19:22;15.50;99.90
53053;DHT22;38934;52.690;6.184;2023-04-21T10:21:49;15.50;99.90
53053;DHT22;38934;52.690;6.184;2023-04-21T10:24:15;15.40;99.90
53053;DHT22;38934;52.690;6.184;2023-04-21T10:26:42;15.40;99.90
53053;DHT22;38934;52.690;6.184;2023-04-21T10:29:08;15.30;99.90
53053;DHT22;38934;52.690;6.184;2023-04-21T10:31:51;15.30;99.90
53053;DHT22;38934;52.690;6.184;2023-04-21T10:39:32;15.40;99.90
53053;DHT22;38934;52.690;6.184;2023-04-21T10:47:26;15.20;99.90
53053;DHT22;38934;52.690;6.184;2023-04-21T10:49:52;15.20;99.90
53053;DHT22;38934;52.690;6.184;2023-04-21T10:52:20;15.10;99.90
53053;DHT22;38934;52.690;6.184;2023-04-21T10:57:18;15.10;99.90
53053;DHT22;38934;52.690;6.184;2023-04-21T10:59:44;15.00;99.90
53053;DHT22;38934;52.690;6.184;2023-04-21T11:02:13;15.00;99.90
53053;DHT22;38934;52.690;6.184;2023-04-21T11:04:40;14.90;99.90
53053;DHT22;38934;52.690;6.184;2023-04-21T11:07:14;15.30;99.90
53053;DHT22;38934;52.690;6.184;2023-04-21T11:09:42;15.00;99.90
53053;DHT22;38934;52.690;6.184;2023-04-21T11:12:10;15.00;99.90
53053;DHT22;38934;52.690;6.184;2023-04-21T11:14:37;15.10;99.90
53053;DHT22;38934;52.690;6.184;2023-04-21T11:17:09;15.10;99.90
53053;DHT22;38934;52.690;6.184;2023-04-21T11:19:37;15.20;99.90
53053;DHT22;38934;52.690;6.184;2023-04-21T11:22:03;15.30;99.90
53053;DHT22;38934;52.690;6.184;2023-04-21T11:24:29;15.30;99.90
53053;DHT22;38934;52.690;6.184;2023-04-21T11:26:55;15.50;99.90
53053;DHT22;38934;52.690;6.184;2023-04-21T11:29:21;15.40;99.90
53053;DHT22;38934;52.690;6.184;2023-04-21T11:31:47;15.50;99.90
53053;DHT22;38934;52.690;6.184;2023-04-21T11:34:15;15.60;99.90
53053;DHT22;38934;52.690;6.184;2023-04-21T11:36:45;15.60;99.90
53053;DHT22;38934;52.690;6.184;2023-04-21T11:39:13;15.40;99.90
53053;DHT22;38934;52.690;6.184;2023-04-21T11:41:44;15.60;99.90
53053;DHT22;38934;52.690;6.184;2023-04-21T11:44:11;15.50;99.90
53053;DHT22;38934;52.690;6.184;2023-04-21T11:46:37;15.40;99.90
53053;DHT22;38934;52.690;6.184;2023-04-21T11:49:11;15.50;99.90
53053;DHT22;38934;52.690;6.184;2023-04-21T11:51:39;15.70;99.90
53053;DHT22;38934;52.690;6.184;2023-04-21T11:54:07;16.10;99.90
53053;DHT22;38934;52.690;6.184;2023-04-21T11:56:35;16.10;99.90
53053;DHT22;38934;52.690;6.184;2023-04-21T11:59:06;16.30;99.90
53053;DHT22;38934;52.690;6.184;2023-04-21T12:01:32;16.40;99.90
53053;DHT22;38934;52.690;6.184;2023-04-21T12:03:57;16.50;99.90
53053;DHT22;38934;52.690;6.184;2023-04-21T12:06:25;16.80;99.90
53053;DHT22;38934;52.690;6.184;2023-04-21T12:08:55;16.70;99.90
53053;DHT22;38934;52.690;6.184;2023-04-21T12:11:29;16.80;99.90
53053;DHT22;38934;52.690;6.184;2023-04-21T12:13:58;16.80;99.90
53053;DHT22;38934;52.690;6.184;2023-04-21T12:16:25;17.00;99.90
53053;DHT22;38934;52.690;6.184;2023-04-21T12:18:52;17.10;99.90
53053;DHT22;38934;52.690;6.184;2023-04-21T12:21:18;17.10;99.90
53053;DHT22;38934;52.690;6.184;2023-04-21T12:23:44;17.20;99.90
53053;DHT22;38934;52.690;6.184;2023-04-21T12:26:10;17.20;99.90
53053;DHT22;38934;52.690;6.184;2023-04-21T12:28:37;17.30;99.90
53053;DHT22;38934;52.690;6.184;2023-04-21T12:31:03;17.60;99.90
53053;DHT22;38934;52.690;6.184;2023-04-21T12:33:29;17.30;99.90
53053;DHT22;38934;52.690;6.184;2023-04-21T12:35:54;17.30;99.90
53053;DHT22;38934;52.690;6.184;2023-04-21T12:38:20;17.30;99.90
53053;DHT22;38934;52.690;6.184;2023-04-21T12:40:47;17.40;99.90
53053;DHT22;38934;52.690;6.184;2023-04-21T12:43:13;17.50;99.90
53053;DHT22;38934;52.690;6.184;2023-04-21T12:45:39;17.60;99.90
53053;DHT22;38934;52.690;6.184;2023-04-21T12:48:06;17.60;99.90
53053;DHT22;38934;52.690;6.184;2023-04-21T12:50:32;17.60;99.90
53053;DHT22;38934;52.690;6.184;2023-04-21T12:52:59;17.60;99.90
53053;DHT22;38934;52.690;6.184;2023-04-21T12:55:24;17.50;99.90
53053;DHT22;38934;52.690;6.184;2023-04-21T12:57:51;17.60;99.90
53053;DHT22;38934;52.690;6.184;2023-04-21T13:00:17;17.50;99.90
53053;DHT22;38934;52.690;6.184;2023-04-21T13:02:43;17.40;99.90
53053;DHT22;38934;52.690;6.184;2023-04-21T13:05:09;17.40;99.90
53053;DHT22;38934;52.690;6.184;2023-04-21T13:07:36;17.40;99.90
53053;DHT22;38934;52.690;6.184;2023-04-21T13:10:04;17.50;99.90
53053;DHT22;38934;52.690;6.184;2023-04-21T13:12:31;17.50;99.90
53053;DHT22;38934;52.690;6.184;2023-04-21T13:14:58;17.80;99.90
53053;DHT22;38934;52.690;6.184;2023-04-21T13:17:23;17.80;99.90
53053;DHT22;38934;52.690;6.184;2023-04-21T13:19:49;18.00;99.90
53053;DHT22;38934;52.690;6.184;2023-04-21T13:22:15;18.30;99.90
53053;DHT22;38934;52.690;6.184;2023-04-21T13:24:42;18.40;99.90
53053;DHT22;38934;52.690;6.184;2023-04-21T13:27:08;18.50;99.90
53053;DHT22;38934;52.690;6.184;2023-04-21T13:29:36;18.50;99.90
53053;DHT22;38934;52.690;6.184;2023-04-21T13:32:03;18.50;99.90
53053;DHT22;38934;52.690;6.184;2023-04-21T13:34:30;18.50;99.90
53053;DHT22;38934;52.690;6.184;2023-04-21T13:36:56;18.60;99.90
53053;DHT22;38934;52.690;6.184;2023-04-21T13:39:22;18.70;99.90
53053;DHT22;38934;52.690;6.184;2023-04-21T13:41:48;18.70;99.90
53053;DHT22;38934;52.690;6.184;2023-04-21T13:44:13;18.80;99.90
53053;DHT22;38934;52.690;6.184;2023-04-21T13:46:39;18.70;99.90
53053;DHT22;38934;52.690;6.184;2023-04-21T13:49:05;18.70;99.90
53053;DHT22;38934;52.690;6.184;2023-04-21T13:51:31;18.70;99.90
53053;DHT22;38934;52.690;6.184;2023-04-21T13:53:57;18.60;99.90
53053;DHT22;38934;52.690;6.184;2023-04-21T13:56:22;18.60;99.90
53053;DHT22;38934;52.690;6.184;2023-04-21T13:58:48;18.60;99.90
53053;DHT22;38934;52.690;6.184;2023-04-21T14:01:14;18.50;99.90
53053;DHT22;38934;52.690;6.184;2023-04-21T14:03:40;18.50;99.90
53053;DHT22;38934;52.690;6.184;2023-04-21T14:06:07;18.70;99.90
53053;DHT22;38934;52.690;6.184;2023-04-21T14:08:34;18.60;99.90
53053;DHT22;38934;52.690;6.184;2023-04-21T14:11:01;18.50;99.90
53053;DHT22;38934;52.690;6.184;2023-04-21T14:13:27;18.50;99.90
53053;DHT22;38934;52.690;6.184;2023-04-21T14:15:55;18.30;99.90
53053;DHT22;38934;52.690;6.184;2023-04-21T14:18:21;18.20;99.90
53053;DHT22;38934;52.690;6.184;2023-04-21T14:20:47;18.20;99.90
53053;DHT22;38934;52.690;6.184;2023-04-21T14:23:12;18.40;99.90
53053;DHT22;38934;52.690;6.184;2023-04-21T14:25:38;18.10;99.90
53053;DHT22;38934;52.690;6.184;2023-04-21T14:28:03;18.00;99.90
53053;DHT22;38934;52.690;6.184;2023-04-21T14:30:36;18.10;99.90
53053;DHT22;38934;52.690;6.184;2023-04-21T14:33:02;17.90;99.90
53053;DHT22;38934;52.690;6.184;2023-04-21T14:35:28;17.90;99.90
53053;DHT22;38934;52.690;6.184;2023-04-21T14:37:56;17.80;99.90
53053;DHT22;38934;52.690;6.184;2023-04-21T14:40:21;17.90;99.90
53053;DHT22;38934;52.690;6.184;2023-04-21T14:42:47;17.70;99.90
53053;DHT22;38934;52.690;6.184;2023-04-21T14:45:13;17.60;99.90
53053;DHT22;38934;52.690;6.184;2023-04-21T14:47:39;17.60;99.90
53053;DHT22;38934;52.690;6.184;2023-04-21T14:50:05;17.80;99.90
53053;DHT22;38934;52.690;6.184;2023-04-21T14:52:31;17.60;99.90
53053;DHT22;38934;52.690;6.184;2023-04-21T14:54:57;17.70;99.90
53053;DHT22;38934;52.690;6.184;2023-04-21T14:57:24;17.80;99.90
53053;DHT22;38934;52.690;6.184;2023-04-21T14:59:51;18.00;99.90
53053;DHT22;38934;52.690;6.184;2023-04-21T15:02:18;18.10;99.90
53053;DHT22;38934;52.690;6.184;2023-04-21T15:04:44;18.30;99.90
53053;DHT22;38934;52.690;6.184;2023-04-21T15:07:09;18.20;99.90
53053;DHT22;38934;52.690;6.184;2023-04-21T15:09:35;18.30;99.90
53053;DHT22;38934;52.690;6.184;2023-04-21T15:12:01;18.30;99.90
53053;DHT22;38934;52.690;6.184;2023-04-21T15:14:27;18.20;99.90
53053;DHT22;38934;52.690;6.184;2023-04-21T15:16:53;18.20;99.90
53053;DHT22;38934;52.690;6.184;2023-04-21T15:19:19;18.20;99.90
53053;DHT22;38934;52.690;6.184;2023-04-21T15:21:45;18.30;99.90
53053;DHT22;38934;52.690;6.184;2023-04-21T15:24:11;18.30;99.90
53053;DHT22;38934;52.690;6.184;2023-04-21T15:26:36;18.30;99.90
53053;DHT22;38934;52.690;6.184;2023-04-21T15:29:02;18.30;99.90
53053;DHT22;38934;52.690;6.184;2023-04-21T15:31:28;18.20;99.90
53053;DHT22;38934;52.690;6.184;2023-04-21T15:34:00;18.20;99.90
53053;DHT22;38934;52.690;6.184;2023-04-21T15:36:26;18.20;99.90
53053;DHT22;38934;52.690;6.184;2023-04-21T15:38:51;18.20;99.90
53053;DHT22;38934;52.690;6.184;2023-04-21T15:41:18;18.10;99.90
53053;DHT22;38934;52.690;6.184;2023-04-21T15:43:43;18.00;99.90
53053;DHT22;38934;52.690;6.184;2023-04-21T15:46:10;18.00;99.90
53053;DHT22;38934;52.690;6.184;2023-04-21T15:48:39;18.10;99.90